LIMW/AOT METAR and TAF weather

Enter ICAO airport designator
Station Type Date Time Source
LIMW METAR 2021/07/28 17:50 UTC NOAA

LIMW 281750Z AUTO 10015KT 9999 NCD 25/16 Q1014


Station Type Date Time Source
LIMW Decoded METAR 2021/07/28 17:50 UTC NOAA

Station name not available
Jul 28, 2021 - 01:50 PM EDT / 2021.07.28 1750 UTC
Wind: from the E (100 degrees) at 17 MPH (15 KT):0
Visibility: greater than 7 mile(s):0
Temperature: 77 F (25 C)
Dew Point: 60 F (16 C)
Relative Humidity: 57%
Pressure (altimeter): 29.94 in. Hg (1014 hPa)
ob: LIMW 281750Z AUTO 10015KT 9999 NCD 25/16 Q1014
cycle: 18

Station Type Date Time Source
LIMW TAF UTC NOAA

Error!

Example: see airport list